sensor_id;sensor_type;location;lat;lon;timestamp;temperature;humidity
7516;DHT22;3799;47.184;8.538;2023-05-01T00:02:18;13.40;99.90
7516;DHT22;3799;47.184;8.538;2023-05-01T00:04:47;13.70;99.90
7516;DHT22;3799;47.184;8.538;2023-05-01T00:07:28;13.40;99.90
7516;DHT22;3799;47.184;8.538;2023-05-01T00:09:57;13.50;99.90
7516;DHT22;3799;47.184;8.538;2023-05-01T00:12:27;13.70;99.90
7516;DHT22;3799;47.184;8.538;2023-05-01T00:14:55;13.40;99.90
7516;DHT22;3799;47.184;8.538;2023-05-01T00:17:22;13.50;99.90
7516;DHT22;3799;47.184;8.538;2023-05-01T00:19:53;13.60;99.90
7516;DHT22;3799;47.184;8.538;2023-05-01T00:22:21;13.60;99.90
7516;DHT22;3799;47.184;8.538;2023-05-01T00:24:48;13.30;99.90
7516;DHT22;3799;47.184;8.538;2023-05-01T00:27:16;13.20;99.90
7516;DHT22;3799;47.184;8.538;2023-05-01T00:29:44;13.60;99.90
7516;DHT22;3799;47.184;8.538;2023-05-01T00:32:12;13.50;99.90
7516;DHT22;3799;47.184;8.538;2023-05-01T00:34:39;13.60;99.90
7516;DHT22;3799;47.184;8.538;2023-05-01T00:37:11;13.60;99.90
7516;DHT22;3799;47.184;8.538;2023-05-01T00:39:38;13.40;99.90
7516;DHT22;3799;47.184;8.538;2023-05-01T00:42:05;13.60;99.90
7516;DHT22;3799;47.184;8.538;2023-05-01T00:44:33;13.80;99.90
7516;DHT22;3799;47.184;8.538;2023-05-01T00:47:00;13.60;99.90
7516;DHT22;3799;47.184;8.538;2023-05-01T00:49:30;13.80;99.90
7516;DHT22;3799;47.184;8.538;2023-05-01T00:51:58;13.70;99.90
7516;DHT22;3799;47.184;8.538;2023-05-01T00:54:26;13.30;99.90
7516;DHT22;3799;47.184;8.538;2023-05-01T00:56:54;13.50;99.90
7516;DHT22;3799;47.184;8.538;2023-05-01T00:59:23;13.60;99.90
7516;DHT22;3799;47.184;8.538;2023-05-01T01:01:51;13.50;99.90
7516;DHT22;3799;47.184;8.538;2023-05-01T01:04:22;13.30;99.90
7516;DHT22;3799;47.184;8.538;2023-05-01T01:09:52;13.20;99.90
7516;DHT22;3799;47.184;8.538;2023-05-01T01:12:37;13.50;99.90
7516;DHT22;3799;47.184;8.538;2023-05-01T01:15:18;13.50;99.90
7516;DHT22;3799;47.184;8.538;2023-05-01T01:18:02;13.30;99.90
7516;DHT22;3799;47.184;8.538;2023-05-01T01:20:38;13.20;99.90
7516;DHT22;3799;47.184;8.538;2023-05-01T01:34:13;13.10;99.90
7516;DHT22;3799;47.184;8.538;2023-05-01T01:37:07;12.90;99.90
7516;DHT22;3799;47.184;8.538;2023-05-01T01:42:30;13.00;99.90
7516;DHT22;3799;47.184;8.538;2023-05-01T01:45:05;13.10;99.90
7516;DHT22;3799;47.184;8.538;2023-05-01T01:47:39;12.90;99.90
7516;DHT22;3799;47.184;8.538;2023-05-01T01:50:09;12.90;99.90
7516;DHT22;3799;47.184;8.538;2023-05-01T01:52:46;13.00;99.90
7516;DHT22;3799;47.184;8.538;2023-05-01T01:55:16;12.90;99.90
7516;DHT22;3799;47.184;8.538;2023-05-01T01:57:51;12.80;99.90
7516;DHT22;3799;47.184;8.538;2023-05-01T02:00:19;12.70;99.90
7516;DHT22;3799;47.184;8.538;2023-05-01T02:02:48;12.80;99.90
7516;DHT22;3799;47.184;8.538;2023-05-01T02:05:18;12.60;99.90
7516;DHT22;3799;47.184;8.538;2023-05-01T02:07:49;12.50;99.90
7516;DHT22;3799;47.184;8.538;2023-05-01T02:10:18;12.70;99.90
7516;DHT22;3799;47.184;8.538;2023-05-01T02:12:47;12.80;99.90
7516;DHT22;3799;47.184;8.538;2023-05-01T02:15:18;12.80;99.90
7516;DHT22;3799;47.184;8.538;2023-05-01T02:17:46;12.60;99.90
7516;DHT22;3799;47.184;8.538;2023-05-01T02:20:15;12.40;99.90
7516;DHT22;3799;47.184;8.538;2023-05-01T02:22:44;12.60;99.90
7516;DHT22;3799;47.184;8.538;2023-05-01T02:25:13;12.60;99.90
7516;DHT22;3799;47.184;8.538;2023-05-01T02:27:58;12.60;99.90
7516;DHT22;3799;47.184;8.538;2023-05-01T02:30:27;12.50;99.90
7516;DHT22;3799;47.184;8.538;2023-05-01T02:32:55;12.50;99.90
7516;DHT22;3799;47.184;8.538;2023-05-01T02:35:23;12.50;99.90
7516;DHT22;3799;47.184;8.538;2023-05-01T02:37:54;12.40;99.90
7516;DHT22;3799;47.184;8.538;2023-05-01T02:40:21;12.50;99.90
7516;DHT22;3799;47.184;8.538;2023-05-01T02:42:50;12.40;99.90
7516;DHT22;3799;47.184;8.538;2023-05-01T02:45:20;12.30;99.90
7516;DHT22;3799;47.184;8.538;2023-05-01T02:47:50;12.30;99.90
7516;DHT22;3799;47.184;8.538;2023-05-01T02:50:21;12.30;99.90
7516;DHT22;3799;47.184;8.538;2023-05-01T02:52:49;12.10;99.90
7516;DHT22;3799;47.184;8.538;2023-05-01T02:55:17;12.30;99.90
7516;DHT22;3799;47.184;8.538;2023-05-01T02:57:45;12.10;99.90
7516;DHT22;3799;47.184;8.538;2023-05-01T03:00:12;12.40;99.90
7516;DHT22;3799;47.184;8.538;2023-05-01T03:02:40;12.30;99.90
7516;DHT22;3799;47.184;8.538;2023-05-01T03:05:08;12.20;99.90
7516;DHT22;3799;47.184;8.538;2023-05-01T03:07:35;12.30;99.90
7516;DHT22;3799;47.184;8.538;2023-05-01T03:10:06;12.20;99.90
7516;DHT22;3799;47.184;8.538;2023-05-01T03:12:34;12.20;99.90
7516;DHT22;3799;47.184;8.538;2023-05-01T03:15:01;12.40;99.90
7516;DHT22;3799;47.184;8.538;2023-05-01T03:17:36;12.40;99.90
7516;DHT22;3799;47.184;8.538;2023-05-01T03:20:05;12.10;99.90
7516;DHT22;3799;47.184;8.538;2023-05-01T03:22:33;11.90;99.90
7516;DHT22;3799;47.184;8.538;2023-05-01T03:25:00;12.20;99.90
7516;DHT22;3799;47.184;8.538;2023-05-01T03:27:28;12.00;99.90
7516;DHT22;3799;47.184;8.538;2023-05-01T03:29:58;12.00;99.90
7516;DHT22;3799;47.184;8.538;2023-05-01T03:32:26;11.90;99.90
7516;DHT22;3799;47.184;8.538;2023-05-01T03:34:58;12.20;99.90
7516;DHT22;3799;47.184;8.538;2023-05-01T03:37:27;12.20;99.90
7516;DHT22;3799;47.184;8.538;2023-05-01T03:39:54;12.10;99.90
7516;DHT22;3799;47.184;8.538;2023-05-01T03:42:22;12.10;99.90
7516;DHT22;3799;47.184;8.538;2023-05-01T03:44:50;11.90;99.90
7516;DHT22;3799;47.184;8.538;2023-05-01T03:47:18;12.20;99.90
7516;DHT22;3799;47.184;8.538;2023-05-01T03:49:49;11.90;99.90
7516;DHT22;3799;47.184;8.538;2023-05-01T03:52:26;12.00;99.90
7516;DHT22;3799;47.184;8.538;2023-05-01T03:54:54;12.00;99.90
7516;DHT22;3799;47.184;8.538;2023-05-01T03:57:21;11.90;99.90
7516;DHT22;3799;47.184;8.538;2023-05-01T03:59:49;12.00;99.90
7516;DHT22;3799;47.184;8.538;2023-05-01T04:02:16;11.90;99.90
7516;DHT22;3799;47.184;8.538;2023-05-01T04:04:44;11.60;99.90
7516;DHT22;3799;47.184;8.538;2023-05-01T04:07:15;11.70;99.90
7516;DHT22;3799;47.184;8.538;2023-05-01T04:09:43;11.90;99.90
7516;DHT22;3799;47.184;8.538;2023-05-01T04:12:10;11.70;99.90
7516;DHT22;3799;47.184;8.538;2023-05-01T04:14:37;11.70;99.90
7516;DHT22;3799;47.184;8.538;2023-05-01T04:17:04;11.90;99.90
7516;DHT22;3799;47.184;8.538;2023-05-01T04:19:31;11.60;99.90
7516;DHT22;3799;47.184;8.538;2023-05-01T04:21:58;11.80;99.90
7516;DHT22;3799;47.184;8.538;2023-05-01T04:24:25;11.70;99.90
7516;DHT22;3799;47.184;8.538;2023-05-01T04:26:53;11.70;99.90
7516;DHT22;3799;47.184;8.538;2023-05-01T04:29:20;11.80;99.90
7516;DHT22;3799;47.184;8.538;2023-05-01T04:31:47;11.90;99.90
7516;DHT22;3799;47.184;8.538;2023-05-01T04:34:15;11.70;99.90
7516;DHT22;3799;47.184;8.538;2023-05-01T04:36:42;11.90;99.90
7516;DHT22;3799;47.184;8.538;2023-05-01T04:39:10;11.70;99.90
7516;DHT22;3799;47.184;8.538;2023-05-01T04:41:37;12.10;99.90
7516;DHT22;3799;47.184;8.538;2023-05-01T04:44:05;11.80;99.90
7516;DHT22;3799;47.184;8.538;2023-05-01T04:46:32;12.00;99.90
7516;DHT22;3799;47.184;8.538;2023-05-01T04:49:00;11.70;99.90
7516;DHT22;3799;47.184;8.538;2023-05-01T04:51:27;11.70;99.90
7516;DHT22;3799;47.184;8.538;2023-05-01T04:53:55;11.80;99.90
7516;DHT22;3799;47.184;8.538;2023-05-01T04:56:23;11.80;99.90
7516;DHT22;3799;47.184;8.538;2023-05-01T04:58:51;11.90;99.90
7516;DHT22;3799;47.184;8.538;2023-05-01T05:01:21;11.90;99.90
7516;DHT22;3799;47.184;8.538;2023-05-01T05:03:49;12.20;99.90
7516;DHT22;3799;47.184;8.538;2023-05-01T05:06:19;12.10;99.90
7516;DHT22;3799;47.184;8.538;2023-05-01T05:08:47;11.90;99.90
7516;DHT22;3799;47.184;8.538;2023-05-01T05:11:18;12.30;99.90
7516;DHT22;3799;47.184;8.538;2023-05-01T05:13:53;12.00;99.90
7516;DHT22;3799;47.184;8.538;2023-05-01T05:16:20;12.00;99.90
7516;DHT22;3799;47.184;8.538;2023-05-01T05:18:47;12.00;99.90
7516;DHT22;3799;47.184;8.538;2023-05-01T05:21:15;12.20;99.90
7516;DHT22;3799;47.184;8.538;2023-05-01T05:23:42;12.30;99.90
7516;DHT22;3799;47.184;8.538;2023-05-01T05:26:12;12.10;99.90
7516;DHT22;3799;47.184;8.538;2023-05-01T05:28:39;12.10;99.90
7516;DHT22;3799;47.184;8.538;2023-05-01T05:31:07;12.00;99.90
7516;DHT22;3799;47.184;8.538;2023-05-01T05:33:34;12.10;99.90
7516;DHT22;3799;47.184;8.538;2023-05-01T05:36:02;12.10;99.90
7516;DHT22;3799;47.184;8.538;2023-05-01T05:38:29;12.10;99.90
7516;DHT22;3799;47.184;8.538;2023-05-01T05:40:57;12.00;99.90
7516;DHT22;3799;47.184;8.538;2023-05-01T05:43:30;12.10;99.90
7516;DHT22;3799;47.184;8.538;2023-05-01T05:45:59;12.40;99.90
7516;DHT22;3799;47.184;8.538;2023-05-01T05:48:27;12.10;99.90
7516;DHT22;3799;47.184;8.538;2023-05-01T05:50:55;12.50;99.90
7516;DHT22;3799;47.184;8.538;2023-05-01T05:53:23;12.20;99.90
7516;DHT22;3799;47.184;8.538;2023-05-01T05:55:52;12.30;99.90
7516;DHT22;3799;47.184;8.538;2023-05-01T05:58:19;12.40;99.90
7516;DHT22;3799;47.184;8.538;2023-05-01T06:00:47;12.70;99.90
7516;DHT22;3799;47.184;8.538;2023-05-01T06:03:15;12.30;99.90
7516;DHT22;3799;47.184;8.538;2023-05-01T06:05:44;12.30;99.90
7516;DHT22;3799;47.184;8.538;2023-05-01T06:08:12;12.30;99.90
7516;DHT22;3799;47.184;8.538;2023-05-01T06:10:44;12.40;99.90
7516;DHT22;3799;47.184;8.538;2023-05-01T06:13:12;12.60;99.90
7516;DHT22;3799;47.184;8.538;2023-05-01T06:15:40;12.50;99.90
7516;DHT22;3799;47.184;8.538;2023-05-01T06:18:08;12.50;99.90
7516;DHT22;3799;47.184;8.538;2023-05-01T06:20:36;12.60;99.90
7516;DHT22;3799;47.184;8.538;2023-05-01T06:23:04;12.70;99.90
7516;DHT22;3799;47.184;8.538;2023-05-01T06:25:34;12.50;99.90
7516;DHT22;3799;47.184;8.538;2023-05-01T06:28:02;12.50;99.90
7516;DHT22;3799;47.184;8.538;2023-05-01T06:30:30;12.80;99.90
7516;DHT22;3799;47.184;8.538;2023-05-01T06:32:57;12.70;99.90
7516;DHT22;3799;47.184;8.538;2023-05-01T06:35:25;12.80;99.90
7516;DHT22;3799;47.184;8.538;2023-05-01T06:37:53;12.70;99.90
7516;DHT22;3799;47.184;8.538;2023-05-01T06:40:22;12.90;99.90
7516;DHT22;3799;47.184;8.538;2023-05-01T06:42:50;13.00;99.90
7516;DHT22;3799;47.184;8.538;2023-05-01T06:45:17;13.20;99.90
7516;DHT22;3799;47.184;8.538;2023-05-01T06:47:44;13.10;99.90
7516;DHT22;3799;47.184;8.538;2023-05-01T06:50:12;13.00;99.90
7516;DHT22;3799;47.184;8.538;2023-05-01T06:52:40;13.10;99.90
7516;DHT22;3799;47.184;8.538;2023-05-01T06:55:08;13.00;99.90
7516;DHT22;3799;47.184;8.538;2023-05-01T06:57:35;13.60;99.90
7516;DHT22;3799;47.184;8.538;2023-05-01T07:00:03;13.30;99.90
7516;DHT22;3799;47.184;8.538;2023-05-01T07:02:31;13.40;99.90
7516;DHT22;3799;47.184;8.538;2023-05-01T07:04:59;13.70;99.90
7516;DHT22;3799;47.184;8.538;2023-05-01T07:07:27;13.80;99.90
7516;DHT22;3799;47.184;8.538;2023-05-01T07:09:55;13.70;99.90
7516;DHT22;3799;47.184;8.538;2023-05-01T07:12:23;13.50;99.90
7516;DHT22;3799;47.184;8.538;2023-05-01T07:14:54;13.70;99.90
7516;DHT22;3799;47.184;8.538;2023-05-01T07:17:23;13.70;99.90
7516;DHT22;3799;47.184;8.538;2023-05-01T07:19:50;13.50;99.90
7516;DHT22;3799;47.184;8.538;2023-05-01T07:22:18;13.30;99.90
7516;DHT22;3799;47.184;8.538;2023-05-01T07:24:45;13.50;99.90
7516;DHT22;3799;47.184;8.538;2023-05-01T07:27:13;13.50;99.90
7516;DHT22;3799;47.184;8.538;2023-05-01T07:29:40;13.60;99.90
7516;DHT22;3799;47.184;8.538;2023-05-01T07:32:10;13.70;99.90
7516;DHT22;3799;47.184;8.538;2023-05-01T07:34:37;13.50;99.90
7516;DHT22;3799;47.184;8.538;2023-05-01T07:37:05;13.60;99.90
7516;DHT22;3799;47.184;8.538;2023-05-01T07:39:32;13.80;99.90
7516;DHT22;3799;47.184;8.538;2023-05-01T07:41:59;13.80;99.90
7516;DHT22;3799;47.184;8.538;2023-05-01T07:44:27;13.50;99.90
7516;DHT22;3799;47.184;8.538;2023-05-01T07:46:57;13.90;99.90
7516;DHT22;3799;47.184;8.538;2023-05-01T07:49:29;13.80;99.90
7516;DHT22;3799;47.184;8.538;2023-05-01T07:51:56;14.00;99.90
7516;DHT22;3799;47.184;8.538;2023-05-01T07:54:23;13.80;99.90
7516;DHT22;3799;47.184;8.538;2023-05-01T07:56:51;14.10;99.90
7516;DHT22;3799;47.184;8.538;2023-05-01T07:59:18;14.10;99.90
7516;DHT22;3799;47.184;8.538;2023-05-01T08:01:48;14.10;99.90
7516;DHT22;3799;47.184;8.538;2023-05-01T08:04:16;14.50;99.90
7516;DHT22;3799;47.184;8.538;2023-05-01T08:06:44;14.40;99.90
7516;DHT22;3799;47.184;8.538;2023-05-01T08:09:12;14.50;99.90
7516;DHT22;3799;47.184;8.538;2023-05-01T08:11:40;14.50;99.90
7516;DHT22;3799;47.184;8.538;2023-05-01T08:14:08;14.20;99.90
7516;DHT22;3799;47.184;8.538;2023-05-01T08:16:35;14.50;99.90
7516;DHT22;3799;47.184;8.538;2023-05-01T08:19:04;14.10;99.90
7516;DHT22;3799;47.184;8.538;2023-05-01T08:21:37;14.40;99.90
7516;DHT22;3799;47.184;8.538;2023-05-01T08:24:08;14.30;99.90
7516;DHT22;3799;47.184;8.538;2023-05-01T08:26:37;14.20;99.90
7516;DHT22;3799;47.184;8.538;2023-05-01T08:29:04;14.10;99.90
7516;DHT22;3799;47.184;8.538;2023-05-01T08:31:32;14.20;99.90
7516;DHT22;3799;47.184;8.538;2023-05-01T08:34:04;14.10;99.90
7516;DHT22;3799;47.184;8.538;2023-05-01T08:36:33;14.20;99.90
7516;DHT22;3799;47.184;8.538;2023-05-01T08:39:00;14.10;99.90
7516;DHT22;3799;47.184;8.538;2023-05-01T08:41:36;14.10;99.90
7516;DHT22;3799;47.184;8.538;2023-05-01T08:49:54;14.10;99.90
7516;DHT22;3799;47.184;8.538;2023-05-01T08:52:23;14.20;99.90
7516;DHT22;3799;47.184;8.538;2023-05-01T08:54:56;13.90;99.90
7516;DHT22;3799;47.184;8.538;2023-05-01T08:57:26;14.20;99.90
7516;DHT22;3799;47.184;8.538;2023-05-01T08:59:59;14.00;99.90
7516;DHT22;3799;47.184;8.538;2023-05-01T09:08:24;14.20;99.90
7516;DHT22;3799;47.184;8.538;2023-05-01T09:10:53;14.00;99.90
7516;DHT22;3799;47.184;8.538;2023-05-01T09:13:24;14.10;99.90
7516;DHT22;3799;47.184;8.538;2023-05-01T09:15:51;13.90;99.90
7516;DHT22;3799;47.184;8.538;2023-05-01T09:18:19;14.00;99.90
7516;DHT22;3799;47.184;8.538;2023-05-01T09:20:46;14.00;99.90
7516;DHT22;3799;47.184;8.538;2023-05-01T09:23:13;14.10;99.90
7516;DHT22;3799;47.184;8.538;2023-05-01T09:25:47;14.20;99.90
7516;DHT22;3799;47.184;8.538;2023-05-01T09:28:45;14.60;99.90
7516;DHT22;3799;47.184;8.538;2023-05-01T09:31:24;14.70;99.90
7516;DHT22;3799;47.184;8.538;2023-05-01T09:33:56;14.90;99.90
7516;DHT22;3799;47.184;8.538;2023-05-01T09:36:26;15.00;99.90
7516;DHT22;3799;47.184;8.538;2023-05-01T09:38:54;15.00;99.90
7516;DHT22;3799;47.184;8.538;2023-05-01T09:41:23;14.90;99.90
7516;DHT22;3799;47.184;8.538;2023-05-01T09:43:56;15.10;99.90
7516;DHT22;3799;47.184;8.538;2023-05-01T09:46:25;15.10;99.90
7516;DHT22;3799;47.184;8.538;2023-05-01T09:48:54;15.10;99.90
7516;DHT22;3799;47.184;8.538;2023-05-01T09:51:33;15.20;99.90
7516;DHT22;3799;47.184;8.538;2023-05-01T09:54:02;15.20;99.90
7516;DHT22;3799;47.184;8.538;2023-05-01T09:56:32;15.30;99.90
7516;DHT22;3799;47.184;8.538;2023-05-01T09:59:32;14.80;99.90
7516;DHT22;3799;47.184;8.538;2023-05-01T10:02:03;15.10;99.90
7516;DHT22;3799;47.184;8.538;2023-05-01T10:04:35;15.30;99.90
7516;DHT22;3799;47.184;8.538;2023-05-01T10:07:13;15.10;99.90
7516;DHT22;3799;47.184;8.538;2023-05-01T10:09:40;15.00;99.90
7516;DHT22;3799;47.184;8.538;2023-05-01T10:12:22;15.10;99.90
7516;DHT22;3799;47.184;8.538;2023-05-01T10:14:56;15.10;99.90
7516;DHT22;3799;47.184;8.538;2023-05-01T10:17:24;15.10;99.90
7516;DHT22;3799;47.184;8.538;2023-05-01T10:19:52;14.90;99.90
7516;DHT22;3799;47.184;8.538;2023-05-01T10:22:19;15.10;99.90
7516;DHT22;3799;47.184;8.538;2023-05-01T10:24:47;14.90;99.90
7516;DHT22;3799;47.184;8.538;2023-05-01T10:27:16;14.80;99.90
7516;DHT22;3799;47.184;8.538;2023-05-01T10:29:45;14.80;99.90
7516;DHT22;3799;47.184;8.538;2023-05-01T10:32:15;15.20;99.90
7516;DHT22;3799;47.184;8.538;2023-05-01T10:34:46;15.20;99.90
7516;DHT22;3799;47.184;8.538;2023-05-01T10:37:23;15.20;99.90
7516;DHT22;3799;47.184;8.538;2023-05-01T10:39:55;15.00;99.90
7516;DHT22;3799;47.184;8.538;2023-05-01T10:42:22;15.20;99.90
7516;DHT22;3799;47.184;8.538;2023-05-01T10:44:50;15.10;99.90
7516;DHT22;3799;47.184;8.538;2023-05-01T10:50:11;15.40;99.90
7516;DHT22;3799;47.184;8.538;2023-05-01T10:55:46;15.40;99.90
7516;DHT22;3799;47.184;8.538;2023-05-01T11:01:42;15.80;99.90
7516;DHT22;3799;47.184;8.538;2023-05-01T11:09:53;16.00;99.90
7516;DHT22;3799;47.184;8.538;2023-05-01T11:15:11;16.00;99.90
7516;DHT22;3799;47.184;8.538;2023-05-01T11:20:07;15.80;99.90
7516;DHT22;3799;47.184;8.538;2023-05-01T11:22:36;15.50;99.90
7516;DHT22;3799;47.184;8.538;2023-05-01T11:25:16;15.80;99.90
7516;DHT22;3799;47.184;8.538;2023-05-01T11:27:47;15.60;99.90
7516;DHT22;3799;47.184;8.538;2023-05-01T11:30:15;15.70;99.90
7516;DHT22;3799;47.184;8.538;2023-05-01T11:32:44;15.40;99.90
7516;DHT22;3799;47.184;8.538;2023-05-01T11:35:23;15.40;99.90
7516;DHT22;3799;47.184;8.538;2023-05-01T11:37:52;15.30;99.90
7516;DHT22;3799;47.184;8.538;2023-05-01T11:40:31;15.60;99.90
7516;DHT22;3799;47.184;8.538;2023-05-01T11:43:03;15.50;99.90
7516;DHT22;3799;47.184;8.538;2023-05-01T11:45:31;15.50;99.90
7516;DHT22;3799;47.184;8.538;2023-05-01T11:47:59;15.10;99.90
7516;DHT22;3799;47.184;8.538;2023-05-01T11:50:32;15.30;99.90
7516;DHT22;3799;47.184;8.538;2023-05-01T11:53:00;15.20;99.90
7516;DHT22;3799;47.184;8.538;2023-05-01T11:55:31;15.10;99.90
7516;DHT22;3799;47.184;8.538;2023-05-01T11:58:00;15.00;99.90
7516;DHT22;3799;47.184;8.538;2023-05-01T12:00:33;14.70;99.90
7516;DHT22;3799;47.184;8.538;2023-05-01T12:03:09;14.60;99.90
7516;DHT22;3799;47.184;8.538;2023-05-01T12:05:40;14.70;99.90
7516;DHT22;3799;47.184;8.538;2023-05-01T12:08:14;14.50;99.90
7516;DHT22;3799;47.184;8.538;2023-05-01T12:10:55;14.70;99.90
7516;DHT22;3799;47.184;8.538;2023-05-01T12:13:23;14.30;99.90
7516;DHT22;3799;47.184;8.538;2023-05-01T12:15:55;14.50;99.90
7516;DHT22;3799;47.184;8.538;2023-05-01T12:18:23;14.60;99.90
7516;DHT22;3799;47.184;8.538;2023-05-01T12:20:56;14.60;99.90
7516;DHT22;3799;47.184;8.538;2023-05-01T12:23:34;14.70;99.90
7516;DHT22;3799;47.184;8.538;2023-05-01T12:26:17;15.00;99.90
7516;DHT22;3799;47.184;8.538;2023-05-01T12:29:06;15.10;99.90
7516;DHT22;3799;47.184;8.538;2023-05-01T12:31:35;15.30;99.90
7516;DHT22;3799;47.184;8.538;2023-05-01T12:34:05;15.20;99.90
7516;DHT22;3799;47.184;8.538;2023-05-01T12:36:34;15.60;99.90
7516;DHT22;3799;47.184;8.538;2023-05-01T12:39:03;15.80;99.90
7516;DHT22;3799;47.184;8.538;2023-05-01T12:41:35;15.60;99.90
7516;DHT22;3799;47.184;8.538;2023-05-01T12:44:23;15.50;99.90
7516;DHT22;3799;47.184;8.538;2023-05-01T12:47:04;14.90;99.90
7516;DHT22;3799;47.184;8.538;2023-05-01T12:49:32;15.20;99.90
7516;DHT22;3799;47.184;8.538;2023-05-01T12:52:03;14.80;99.90
7516;DHT22;3799;47.184;8.538;2023-05-01T12:54:33;14.70;99.90
7516;DHT22;3799;47.184;8.538;2023-05-01T12:57:12;14.60;99.90
7516;DHT22;3799;47.184;8.538;2023-05-01T12:59:43;14.60;99.90
7516;DHT22;3799;47.184;8.538;2023-05-01T13:02:11;14.00;99.90
7516;DHT22;3799;47.184;8.538;2023-05-01T13:04:39;13.90;99.90
7516;DHT22;3799;47.184;8.538;2023-05-01T13:07:16;13.60;99.90
7516;DHT22;3799;47.184;8.538;2023-05-01T13:09:57;13.60;99.90
7516;DHT22;3799;47.184;8.538;2023-05-01T13:12:26;13.60;99.90
7516;DHT22;3799;47.184;8.538;2023-05-01T13:14:55;13.80;99.90
7516;DHT22;3799;47.184;8.538;2023-05-01T13:17:27;13.80;99.90
7516;DHT22;3799;47.184;8.538;2023-05-01T13:20:02;13.70;99.90
7516;DHT22;3799;47.184;8.538;2023-05-01T13:22:35;14.00;99.90
7516;DHT22;3799;47.184;8.538;2023-05-01T13:25:17;13.90;99.90
7516;DHT22;3799;47.184;8.538;2023-05-01T13:27:50;13.90;99.90
7516;DHT22;3799;47.184;8.538;2023-05-01T13:30:32;14.00;99.90
7516;DHT22;3799;47.184;8.538;2023-05-01T13:33:00;14.10;99.90
7516;DHT22;3799;47.184;8.538;2023-05-01T13:35:29;14.10;99.90
7516;DHT22;3799;47.184;8.538;2023-05-01T13:37:57;14.00;99.90
7516;DHT22;3799;47.184;8.538;2023-05-01T13:40:25;14.10;99.90
7516;DHT22;3799;47.184;8.538;2023-05-01T13:42:53;14.00;99.90
7516;DHT22;3799;47.184;8.538;2023-05-01T13:45:21;13.90;99.90
7516;DHT22;3799;47.184;8.538;2023-05-01T13:47:49;14.10;99.90
7516;DHT22;3799;47.184;8.538;2023-05-01T13:50:20;14.00;99.90
7516;DHT22;3799;47.184;8.538;2023-05-01T13:52:51;14.20;99.90
7516;DHT22;3799;47.184;8.538;2023-05-01T13:55:20;13.90;99.90
7516;DHT22;3799;47.184;8.538;2023-05-01T13:57:48;13.90;99.90
7516;DHT22;3799;47.184;8.538;2023-05-01T14:00:16;14.20;99.90
7516;DHT22;3799;47.184;8.538;2023-05-01T14:02:47;14.20;99.90
7516;DHT22;3799;47.184;8.538;2023-05-01T14:05:19;14.30;99.90
7516;DHT22;3799;47.184;8.538;2023-05-01T14:07:53;14.40;99.90
7516;DHT22;3799;47.184;8.538;2023-05-01T14:10:22;14.40;99.90
7516;DHT22;3799;47.184;8.538;2023-05-01T14:12:57;14.30;99.90
7516;DHT22;3799;47.184;8.538;2023-05-01T14:15:26;14.30;99.90
7516;DHT22;3799;47.184;8.538;2023-05-01T14:17:56;14.70;99.90
7516;DHT22;3799;47.184;8.538;2023-05-01T14:20:44;14.40;99.90
7516;DHT22;3799;47.184;8.538;2023-05-01T14:23:17;14.70;99.90
7516;DHT22;3799;47.184;8.538;2023-05-01T14:25:48;14.80;99.90
7516;DHT22;3799;47.184;8.538;2023-05-01T14:28:16;14.80;99.90
7516;DHT22;3799;47.184;8.538;2023-05-01T14:30:43;14.60;99.90
7516;DHT22;3799;47.184;8.538;2023-05-01T14:33:15;15.00;99.90
7516;DHT22;3799;47.184;8.538;2023-05-01T14:35:50;14.90;99.90
7516;DHT22;3799;47.184;8.538;2023-05-01T14:38:19;14.60;99.90
7516;DHT22;3799;47.184;8.538;2023-05-01T14:40:47;14.80;99.90
7516;DHT22;3799;47.184;8.538;2023-05-01T14:43:26;15.00;99.90
7516;DHT22;3799;47.184;8.538;2023-05-01T14:45:54;14.90;99.90
7516;DHT22;3799;47.184;8.538;2023-05-01T14:48:24;14.90;99.90
7516;DHT22;3799;47.184;8.538;2023-05-01T14:50:52;15.00;99.90
7516;DHT22;3799;47.184;8.538;2023-05-01T14:53:25;15.20;99.90
7516;DHT22;3799;47.184;8.538;2023-05-01T14:55:54;15.40;99.90
7516;DHT22;3799;47.184;8.538;2023-05-01T14:58:28;15.70;99.90
7516;DHT22;3799;47.184;8.538;2023-05-01T15:00:56;16.20;99.90
7516;DHT22;3799;47.184;8.538;2023-05-01T15:03:27;16.50;99.90
7516;DHT22;3799;47.184;8.538;2023-05-01T15:05:54;16.50;99.90
7516;DHT22;3799;47.184;8.538;2023-05-01T15:08:26;16.60;99.90
7516;DHT22;3799;47.184;8.538;2023-05-01T15:10:53;16.60;99.90
7516;DHT22;3799;47.184;8.538;2023-05-01T15:13:21;16.50;99.90
7516;DHT22;3799;47.184;8.538;2023-05-01T15:15:49;16.60;99.90
7516;DHT22;3799;47.184;8.538;2023-05-01T15:18:18;16.60;99.90
7516;DHT22;3799;47.184;8.538;2023-05-01T15:20:45;16.90;99.90
7516;DHT22;3799;47.184;8.538;2023-05-01T15:23:13;16.60;99.90
7516;DHT22;3799;47.184;8.538;2023-05-01T15:25:41;16.50;99.90
7516;DHT22;3799;47.184;8.538;2023-05-01T15:28:11;16.10;99.90
7516;DHT22;3799;47.184;8.538;2023-05-01T15:30:42;16.20;99.90
7516;DHT22;3799;47.184;8.538;2023-05-01T15:33:10;16.20;99.90
7516;DHT22;3799;47.184;8.538;2023-05-01T15:35:38;16.20;99.90
7516;DHT22;3799;47.184;8.538;2023-05-01T15:38:08;16.20;99.90
7516;DHT22;3799;47.184;8.538;2023-05-01T15:40:36;16.00;99.90
7516;DHT22;3799;47.184;8.538;2023-05-01T15:43:04;16.10;99.90
7516;DHT22;3799;47.184;8.538;2023-05-01T15:45:32;15.70;99.90
7516;DHT22;3799;47.184;8.538;2023-05-01T15:48:00;15.80;99.90
7516;DHT22;3799;47.184;8.538;2023-05-01T15:50:28;15.50;98.70
7516;DHT22;3799;47.184;8.538;2023-05-01T15:52:58;15.30;97.50
7516;DHT22;3799;47.184;8.538;2023-05-01T15:55:25;15.20;99.90
7516;DHT22;3799;47.184;8.538;2023-05-01T15:57:53;15.10;99.90
7516;DHT22;3799;47.184;8.538;2023-05-01T16:00:27;15.00;99.90
7516;DHT22;3799;47.184;8.538;2023-05-01T16:02:54;15.10;99.90
7516;DHT22;3799;47.184;8.538;2023-05-01T16:05:23;15.00;99.90
7516;DHT22;3799;47.184;8.538;2023-05-01T16:07:53;14.90;99.90
7516;DHT22;3799;47.184;8.538;2023-05-01T16:10:21;15.00;99.90
7516;DHT22;3799;47.184;8.538;2023-05-01T16:12:54;14.60;99.90
7516;DHT22;3799;47.184;8.538;2023-05-01T16:15:21;14.60;99.90
7516;DHT22;3799;47.184;8.538;2023-05-01T16:17:49;14.80;99.90
7516;DHT22;3799;47.184;8.538;2023-05-01T16:20:25;14.50;99.90
7516;DHT22;3799;47.184;8.538;2023-05-01T16:22:53;14.40;99.90
7516;DHT22;3799;47.184;8.538;2023-05-01T16:25:20;14.50;99.90
7516;DHT22;3799;47.184;8.538;2023-05-01T16:27:55;14.60;99.90
7516;DHT22;3799;47.184;8.538;2023-05-01T16:30:26;14.50;99.90
7516;DHT22;3799;47.184;8.538;2023-05-01T16:32:54;14.40;99.90
7516;DHT22;3799;47.184;8.538;2023-05-01T16:35:26;14.80;99.90
7516;DHT22;3799;47.184;8.538;2023-05-01T16:37:54;14.50;99.90
7516;DHT22;3799;47.184;8.538;2023-05-01T16:40:22;14.40;99.90
7516;DHT22;3799;47.184;8.538;2023-05-01T16:42:51;14.50;99.90
7516;DHT22;3799;47.184;8.538;2023-05-01T16:45:19;14.10;99.90
7516;DHT22;3799;47.184;8.538;2023-05-01T16:47:50;14.40;99.90
7516;DHT22;3799;47.184;8.538;2023-05-01T16:50:21;14.20;99.90
7516;DHT22;3799;47.184;8.538;2023-05-01T16:52:52;14.10;99.90
7516;DHT22;3799;47.184;8.538;2023-05-01T16:55:21;14.00;99.90
7516;DHT22;3799;47.184;8.538;2023-05-01T16:57:50;14.20;99.90
7516;DHT22;3799;47.184;8.538;2023-05-01T17:00:20;14.30;99.90
7516;DHT22;3799;47.184;8.538;2023-05-01T17:02:48;14.10;99.90
7516;DHT22;3799;47.184;8.538;2023-05-01T17:05:16;14.00;99.90
7516;DHT22;3799;47.184;8.538;2023-05-01T17:07:43;14.10;99.90
7516;DHT22;3799;47.184;8.538;2023-05-01T17:10:11;14.00;99.90